sensor_id;sensor_type;location;lat;lon;timestamp;P1;durP1;ratioP1;P2;durP2;ratioP2
59028;SDS011;45919;51.420;5.454;2022-12-18T00:00:01;49.08;;;21.98;;
59028;SDS011;45919;51.420;5.454;2022-12-18T00:01:03;44.42;;;21.77;;
59028;SDS011;45919;51.420;5.454;2022-12-18T00:02:07;49.33;;;23.88;;
59028;SDS011;45919;51.420;5.454;2022-12-18T00:03:09;53.08;;;24.45;;
59028;SDS011;45919;51.420;5.454;2022-12-18T00:04:15;44.25;;;22.48;;
59028;SDS011;45919;51.420;5.454;2022-12-18T00:05:27;48.22;;;21.50;;
59028;SDS011;45919;51.420;5.454;2022-12-18T00:06:29;50.97;;;22.48;;
59028;SDS011;45919;51.420;5.454;2022-12-18T00:07:31;46.60;;;22.13;;
59028;SDS011;45919;51.420;5.454;2022-12-18T00:08:33;44.65;;;22.20;;
59028;SDS011;45919;51.420;5.454;2022-12-18T00:09:35;53.15;;;22.83;;
59028;SDS011;45919;51.420;5.454;2022-12-18T00:10:37;47.13;;;22.58;;
59028;SDS011;45919;51.420;5.454;2022-12-18T00:11:38;44.92;;;21.05;;
59028;SDS011;45919;51.420;5.454;2022-12-18T00:12:40;44.45;;;21.98;;
59028;SDS011;45919;51.420;5.454;2022-12-18T00:13:42;47.55;;;22.05;;
59028;SDS011;45919;51.420;5.454;2022-12-18T00:14:44;49.35;;;22.70;;
59028;SDS011;45919;51.420;5.454;2022-12-18T00:15:46;43.60;;;20.80;;
59028;SDS011;45919;51.420;5.454;2022-12-18T00:16:47;49.22;;;22.02;;
59028;SDS011;45919;51.420;5.454;2022-12-18T00:17:49;45.40;;;21.00;;
59028;SDS011;45919;51.420;5.454;2022-12-18T00:18:53;45.78;;;22.45;;
59028;SDS011;45919;51.420;5.454;2022-12-18T00:19:57;49.65;;;22.13;;
59028;SDS011;45919;51.420;5.454;2022-12-18T00:20:59;50.67;;;22.58;;
59028;SDS011;45919;51.420;5.454;2022-12-18T00:22:02;49.22;;;23.48;;
59028;SDS011;45919;51.420;5.454;2022-12-18T00:23:04;42.75;;;21.85;;
59028;SDS011;45919;51.420;5.454;2022-12-18T00:24:07;46.47;;;21.67;;
59028;SDS011;45919;51.420;5.454;2022-12-18T00:25:09;44.92;;;22.38;;
59028;SDS011;45919;51.420;5.454;2022-12-18T00:26:12;46.33;;;20.88;;
59028;SDS011;45919;51.420;5.454;2022-12-18T00:27:19;46.83;;;22.88;;
59028;SDS011;45919;51.420;5.454;2022-12-18T00:28:20;50.78;;;24.60;;
59028;SDS011;45919;51.420;5.454;2022-12-18T00:29:24;58.22;;;29.48;;
59028;SDS011;45919;51.420;5.454;2022-12-18T00:30:25;51.83;;;26.17;;
59028;SDS011;45919;51.420;5.454;2022-12-18T00:31:27;53.65;;;26.63;;
59028;SDS011;45919;51.420;5.454;2022-12-18T00:32:28;49.75;;;26.63;;
59028;SDS011;45919;51.420;5.454;2022-12-18T00:33:30;52.67;;;26.27;;
59028;SDS011;45919;51.420;5.454;2022-12-18T00:34:31;53.58;;;27.70;;
59028;SDS011;45919;51.420;5.454;2022-12-18T00:35:33;51.72;;;28.02;;
59028;SDS011;45919;51.420;5.454;2022-12-18T00:36:35;51.92;;;27.55;;
59028;SDS011;45919;51.420;5.454;2022-12-18T00:37:36;53.83;;;27.63;;
59028;SDS011;45919;51.420;5.454;2022-12-18T00:38:38;54.10;;;27.50;;
59028;SDS011;45919;51.420;5.454;2022-12-18T00:39:40;56.15;;;27.85;;
59028;SDS011;45919;51.420;5.454;2022-12-18T00:40:42;44.58;;;24.55;;
59028;SDS011;45919;51.420;5.454;2022-12-18T00:41:43;55.67;;;27.55;;
59028;SDS011;45919;51.420;5.454;2022-12-18T00:43:03;49.70;;;26.75;;
59028;SDS011;45919;51.420;5.454;2022-12-18T00:44:05;52.90;;;24.42;;
59028;SDS011;45919;51.420;5.454;2022-12-18T00:45:08;48.35;;;23.73;;
59028;SDS011;45919;51.420;5.454;2022-12-18T00:46:12;47.25;;;25.05;;
59028;SDS011;45919;51.420;5.454;2022-12-18T00:47:14;51.35;;;23.40;;
59028;SDS011;45919;51.420;5.454;2022-12-18T00:48:15;41.75;;;22.98;;
59028;SDS011;45919;51.420;5.454;2022-12-18T00:49:17;47.33;;;22.27;;
59028;SDS011;45919;51.420;5.454;2022-12-18T00:50:21;50.70;;;21.92;;
59028;SDS011;45919;51.420;5.454;2022-12-18T00:51:23;42.88;;;21.00;;
59028;SDS011;45919;51.420;5.454;2022-12-18T00:52:27;49.97;;;22.55;;
59028;SDS011;45919;51.420;5.454;2022-12-18T00:53:29;46.13;;;21.30;;
59028;SDS011;45919;51.420;5.454;2022-12-18T00:54:30;41.45;;;21.70;;
59028;SDS011;45919;51.420;5.454;2022-12-18T00:55:32;45.65;;;21.77;;
59028;SDS011;45919;51.420;5.454;2022-12-18T00:56:35;43.85;;;21.35;;
59028;SDS011;45919;51.420;5.454;2022-12-18T00:57:37;41.05;;;20.52;;
59028;SDS011;45919;51.420;5.454;2022-12-18T00:58:39;43.88;;;20.65;;
59028;SDS011;45919;51.420;5.454;2022-12-18T00:59:41;46.95;;;21.33;;
59028;SDS011;45919;51.420;5.454;2022-12-18T01:00:42;45.03;;;21.17;;
59028;SDS011;45919;51.420;5.454;2022-12-18T01:01:44;45.10;;;21.77;;
59028;SDS011;45919;51.420;5.454;2022-12-18T01:02:46;45.28;;;21.30;;
59028;SDS011;45919;51.420;5.454;2022-12-18T01:03:48;43.22;;;21.08;;
59028;SDS011;45919;51.420;5.454;2022-12-18T01:04:50;43.53;;;21.88;;
59028;SDS011;45919;51.420;5.454;2022-12-18T01:05:51;45.92;;;21.80;;
59028;SDS011;45919;51.420;5.454;2022-12-18T01:06:53;46.33;;;21.42;;
59028;SDS011;45919;51.420;5.454;2022-12-18T01:07:55;45.30;;;21.35;;
59028;SDS011;45919;51.420;5.454;2022-12-18T01:08:57;47.47;;;22.63;;
59028;SDS011;45919;51.420;5.454;2022-12-18T01:09:59;45.13;;;21.60;;
59028;SDS011;45919;51.420;5.454;2022-12-18T01:11:01;46.40;;;22.27;;
59028;SDS011;45919;51.420;5.454;2022-12-18T01:12:08;44.58;;;21.23;;
59028;SDS011;45919;51.420;5.454;2022-12-18T01:13:10;47.08;;;21.60;;
59028;SDS011;45919;51.420;5.454;2022-12-18T01:14:12;49.95;;;22.33;;
59028;SDS011;45919;51.420;5.454;2022-12-18T01:15:14;46.85;;;21.63;;
59028;SDS011;45919;51.420;5.454;2022-12-18T01:16:16;41.70;;;21.63;;
59028;SDS011;45919;51.420;5.454;2022-12-18T01:17:18;40.35;;;21.48;;
59028;SDS011;45919;51.420;5.454;2022-12-18T01:18:20;46.85;;;21.88;;
59028;SDS011;45919;51.420;5.454;2022-12-18T01:19:21;44.28;;;21.88;;
59028;SDS011;45919;51.420;5.454;2022-12-18T01:20:23;43.50;;;20.80;;
59028;SDS011;45919;51.420;5.454;2022-12-18T01:21:24;45.17;;;22.60;;
59028;SDS011;45919;51.420;5.454;2022-12-18T01:22:26;45.75;;;21.27;;
59028;SDS011;45919;51.420;5.454;2022-12-18T01:23:28;51.15;;;24.40;;
59028;SDS011;45919;51.420;5.454;2022-12-18T01:24:30;46.05;;;23.33;;
59028;SDS011;45919;51.420;5.454;2022-12-18T01:25:31;51.10;;;22.83;;
59028;SDS011;45919;51.420;5.454;2022-12-18T01:26:33;43.85;;;22.75;;
59028;SDS011;45919;51.420;5.454;2022-12-18T01:27:34;45.28;;;23.30;;
59028;SDS011;45919;51.420;5.454;2022-12-18T01:28:37;49.08;;;24.30;;
59028;SDS011;45919;51.420;5.454;2022-12-18T01:29:38;49.13;;;23.83;;
59028;SDS011;45919;51.420;5.454;2022-12-18T01:30:40;51.50;;;23.95;;
59028;SDS011;45919;51.420;5.454;2022-12-18T01:31:41;49.63;;;23.48;;
59028;SDS011;45919;51.420;5.454;2022-12-18T01:32:43;44.70;;;24.08;;
59028;SDS011;45919;51.420;5.454;2022-12-18T01:33:45;47.88;;;25.15;;
59028;SDS011;45919;51.420;5.454;2022-12-18T01:34:47;46.67;;;25.85;;
59028;SDS011;45919;51.420;5.454;2022-12-18T01:35:48;47.67;;;23.35;;
59028;SDS011;45919;51.420;5.454;2022-12-18T01:36:50;47.42;;;22.65;;
59028;SDS011;45919;51.420;5.454;2022-12-18T01:37:54;48.97;;;23.58;;
59028;SDS011;45919;51.420;5.454;2022-12-18T01:38:58;45.53;;;22.98;;
59028;SDS011;45919;51.420;5.454;2022-12-18T01:40:01;45.05;;;22.55;;
59028;SDS011;45919;51.420;5.454;2022-12-18T01:41:02;44.35;;;23.25;;
59028;SDS011;45919;51.420;5.454;2022-12-18T01:42:13;47.35;;;22.45;;
59028;SDS011;45919;51.420;5.454;2022-12-18T01:43:16;40.63;;;20.05;;
59028;SDS011;45919;51.420;5.454;2022-12-18T01:45:59;40.00;;;20.65;;
59028;SDS011;45919;51.420;5.454;2022-12-18T01:47:00;46.92;;;21.83;;
59028;SDS011;45919;51.420;5.454;2022-12-18T01:48:03;39.75;;;19.55;;
59028;SDS011;45919;51.420;5.454;2022-12-18T01:49:08;51.33;;;22.27;;
59028;SDS011;45919;51.420;5.454;2022-12-18T01:51:39;42.53;;;20.23;;
59028;SDS011;45919;51.420;5.454;2022-12-18T01:52:41;43.38;;;20.75;;
59028;SDS011;45919;51.420;5.454;2022-12-18T01:53:44;43.88;;;20.90;;
59028;SDS011;45919;51.420;5.454;2022-12-18T01:54:49;46.25;;;20.52;;
59028;SDS011;45919;51.420;5.454;2022-12-18T01:55:53;46.05;;;22.60;;
59028;SDS011;45919;51.420;5.454;2022-12-18T01:56:58;49.85;;;21.60;;
59028;SDS011;45919;51.420;5.454;2022-12-18T01:58:02;44.60;;;21.13;;
59028;SDS011;45919;51.420;5.454;2022-12-18T01:59:05;44.58;;;20.88;;
59028;SDS011;45919;51.420;5.454;2022-12-18T02:00:15;48.58;;;21.73;;
59028;SDS011;45919;51.420;5.454;2022-12-18T02:01:20;44.00;;;21.63;;
59028;SDS011;45919;51.420;5.454;2022-12-18T02:02:26;41.65;;;19.83;;
59028;SDS011;45919;51.420;5.454;2022-12-18T02:03:28;43.15;;;21.23;;
59028;SDS011;45919;51.420;5.454;2022-12-18T02:04:30;47.38;;;20.75;;
59028;SDS011;45919;51.420;5.454;2022-12-18T02:06:51;46.00;;;21.25;;
59028;SDS011;45919;51.420;5.454;2022-12-18T02:08:05;42.35;;;20.35;;
59028;SDS011;45919;51.420;5.454;2022-12-18T02:09:19;40.45;;;20.30;;
59028;SDS011;45919;51.420;5.454;2022-12-18T02:10:35;42.40;;;20.52;;
59028;SDS011;45919;51.420;5.454;2022-12-18T02:13:14;39.30;;;19.42;;
59028;SDS011;45919;51.420;5.454;2022-12-18T02:18:22;41.58;;;19.63;;
59028;SDS011;45919;51.420;5.454;2022-12-18T02:21:43;38.33;;;19.17;;
59028;SDS011;45919;51.420;5.454;2022-12-18T02:26:37;39.00;;;18.92;;
59028;SDS011;45919;51.420;5.454;2022-12-18T02:27:46;35.60;;;18.05;;
59028;SDS011;45919;51.420;5.454;2022-12-18T02:28:53;38.47;;;19.35;;
59028;SDS011;45919;51.420;5.454;2022-12-18T02:30:00;44.33;;;20.15;;
59028;SDS011;45919;51.420;5.454;2022-12-18T02:31:05;40.95;;;19.80;;
59028;SDS011;45919;51.420;5.454;2022-12-18T02:32:13;41.38;;;19.50;;
59028;SDS011;45919;51.420;5.454;2022-12-18T02:33:19;41.55;;;20.52;;
59028;SDS011;45919;51.420;5.454;2022-12-18T02:34:23;37.90;;;19.85;;
59028;SDS011;45919;51.420;5.454;2022-12-18T02:35:29;38.45;;;19.27;;
59028;SDS011;45919;51.420;5.454;2022-12-18T02:36:32;39.42;;;19.60;;
59028;SDS011;45919;51.420;5.454;2022-12-18T02:37:35;45.85;;;21.55;;
59028;SDS011;45919;51.420;5.454;2022-12-18T02:38:40;39.55;;;19.15;;
59028;SDS011;45919;51.420;5.454;2022-12-18T02:39:43;39.88;;;18.75;;
59028;SDS011;45919;51.420;5.454;2022-12-18T02:40:47;40.15;;;20.23;;
59028;SDS011;45919;51.420;5.454;2022-12-18T02:41:51;36.97;;;19.40;;
59028;SDS011;45919;51.420;5.454;2022-12-18T02:42:53;40.03;;;20.55;;
59028;SDS011;45919;51.420;5.454;2022-12-18T02:43:57;39.47;;;20.65;;
59028;SDS011;45919;51.420;5.454;2022-12-18T02:45:02;39.00;;;20.08;;
59028;SDS011;45919;51.420;5.454;2022-12-18T02:46:26;42.83;;;19.88;;
59028;SDS011;45919;51.420;5.454;2022-12-18T02:47:32;37.97;;;19.83;;
59028;SDS011;45919;51.420;5.454;2022-12-18T02:48:38;38.10;;;19.20;;
59028;SDS011;45919;51.420;5.454;2022-12-18T02:50:58;37.28;;;17.98;;
59028;SDS011;45919;51.420;5.454;2022-12-18T02:52:24;38.42;;;18.75;;
59028;SDS011;45919;51.420;5.454;2022-12-18T02:54:49;33.50;;;17.40;;
59028;SDS011;45919;51.420;5.454;2022-12-18T02:57:21;35.42;;;18.30;;
59028;SDS011;45919;51.420;5.454;2022-12-18T02:59:56;35.45;;;17.50;;
59028;SDS011;45919;51.420;5.454;2022-12-18T03:01:03;34.33;;;16.80;;
59028;SDS011;45919;51.420;5.454;2022-12-18T03:02:19;41.05;;;19.92;;
59028;SDS011;45919;51.420;5.454;2022-12-18T03:04:42;35.10;;;17.83;;
59028;SDS011;45919;51.420;5.454;2022-12-18T03:05:51;39.90;;;18.98;;
59028;SDS011;45919;51.420;5.454;2022-12-18T03:06:58;35.63;;;17.83;;
59028;SDS011;45919;51.420;5.454;2022-12-18T03:08:08;35.25;;;18.90;;
59028;SDS011;45919;51.420;5.454;2022-12-18T03:09:17;33.22;;;18.40;;
59028;SDS011;45919;51.420;5.454;2022-12-18T03:10:30;33.85;;;17.27;;
59028;SDS011;45919;51.420;5.454;2022-12-18T03:11:36;37.28;;;18.58;;
59028;SDS011;45919;51.420;5.454;2022-12-18T03:13:04;38.15;;;18.08;;
59028;SDS011;45919;51.420;5.454;2022-12-18T03:14:11;33.90;;;18.23;;
59028;SDS011;45919;51.420;5.454;2022-12-18T03:15:19;32.13;;;17.48;;
59028;SDS011;45919;51.420;5.454;2022-12-18T03:16:28;36.13;;;18.55;;
59028;SDS011;45919;51.420;5.454;2022-12-18T03:17:32;35.85;;;17.48;;
59028;SDS011;45919;51.420;5.454;2022-12-18T03:18:36;34.53;;;17.88;;
59028;SDS011;45919;51.420;5.454;2022-12-18T03:19:43;33.63;;;17.83;;
59028;SDS011;45919;51.420;5.454;2022-12-18T03:20:47;39.08;;;18.83;;
59028;SDS011;45919;51.420;5.454;2022-12-18T03:21:53;34.22;;;19.77;;
59028;SDS011;45919;51.420;5.454;2022-12-18T03:22:59;36.00;;;18.67;;
59028;SDS011;45919;51.420;5.454;2022-12-18T03:24:15;33.03;;;17.45;;
59028;SDS011;45919;51.420;5.454;2022-12-18T03:25:19;34.70;;;17.45;;
59028;SDS011;45919;51.420;5.454;2022-12-18T03:26:22;33.88;;;17.65;;
59028;SDS011;45919;51.420;5.454;2022-12-18T03:27:26;38.67;;;18.27;;
59028;SDS011;45919;51.420;5.454;2022-12-18T03:28:33;34.50;;;17.20;;
59028;SDS011;45919;51.420;5.454;2022-12-18T03:29:40;35.03;;;16.95;;
59028;SDS011;45919;51.420;5.454;2022-12-18T03:30:58;36.60;;;17.45;;
59028;SDS011;45919;51.420;5.454;2022-12-18T03:32:08;30.75;;;16.60;;
59028;SDS011;45919;51.420;5.454;2022-12-18T03:33:15;32.60;;;17.17;;
59028;SDS011;45919;51.420;5.454;2022-12-18T03:34:23;32.72;;;16.98;;
59028;SDS011;45919;51.420;5.454;2022-12-18T03:35:31;35.97;;;17.13;;
59028;SDS011;45919;51.420;5.454;2022-12-18T03:36:38;30.73;;;16.13;;
59028;SDS011;45919;51.420;5.454;2022-12-18T03:37:40;39.17;;;17.98;;
59028;SDS011;45919;51.420;5.454;2022-12-18T03:38:42;32.33;;;17.48;;
59028;SDS011;45919;51.420;5.454;2022-12-18T03:39:43;37.40;;;17.73;;
59028;SDS011;45919;51.420;5.454;2022-12-18T03:43:41;33.13;;;16.98;;
59028;SDS011;45919;51.420;5.454;2022-12-18T03:46:07;36.30;;;16.58;;
59028;SDS011;45919;51.420;5.454;2022-12-18T03:48:31;35.10;;;17.40;;
59028;SDS011;45919;51.420;5.454;2022-12-18T03:50:59;32.28;;;16.67;;
59028;SDS011;45919;51.420;5.454;2022-12-18T03:52:11;33.42;;;15.73;;
59028;SDS011;45919;51.420;5.454;2022-12-18T03:54:58;32.05;;;15.43;;
59028;SDS011;45919;51.420;5.454;2022-12-18T03:56:02;32.28;;;15.70;;
59028;SDS011;45919;51.420;5.454;2022-12-18T03:57:11;32.63;;;17.05;;
59028;SDS011;45919;51.420;5.454;2022-12-18T03:58:20;31.90;;;15.70;;
59028;SDS011;45919;51.420;5.454;2022-12-18T03:59:25;31.98;;;15.77;;
59028;SDS011;45919;51.420;5.454;2022-12-18T04:00:29;33.10;;;16.88;;
59028;SDS011;45919;51.420;5.454;2022-12-18T04:01:33;35.20;;;16.92;;
59028;SDS011;45919;51.420;5.454;2022-12-18T04:02:38;33.67;;;16.83;;
59028;SDS011;45919;51.420;5.454;2022-12-18T04:03:47;32.53;;;15.93;;
59028;SDS011;45919;51.420;5.454;2022-12-18T04:04:52;34.50;;;16.67;;
59028;SDS011;45919;51.420;5.454;2022-12-18T04:05:57;36.60;;;16.83;;
59028;SDS011;45919;51.420;5.454;2022-12-18T04:07:02;31.98;;;16.60;;
59028;SDS011;45919;51.420;5.454;2022-12-18T04:08:04;33.42;;;16.00;;
59028;SDS011;45919;51.420;5.454;2022-12-18T04:09:06;32.72;;;16.38;;
59028;SDS011;45919;51.420;5.454;2022-12-18T04:10:09;34.10;;;17.30;;
59028;SDS011;45919;51.420;5.454;2022-12-18T04:11:11;32.50;;;16.90;;
59028;SDS011;45919;51.420;5.454;2022-12-18T04:12:13;32.38;;;16.83;;
59028;SDS011;45919;51.420;5.454;2022-12-18T04:13:21;29.02;;;15.85;;
59028;SDS011;45919;51.420;5.454;2022-12-18T04:14:23;33.65;;;16.63;;
59028;SDS011;45919;51.420;5.454;2022-12-18T04:15:25;31.08;;;17.33;;
59028;SDS011;45919;51.420;5.454;2022-12-18T04:16:27;29.08;;;16.17;;
59028;SDS011;45919;51.420;5.454;2022-12-18T04:17:29;30.80;;;16.77;;
59028;SDS011;45919;51.420;5.454;2022-12-18T04:18:30;32.05;;;16.27;;
59028;SDS011;45919;51.420;5.454;2022-12-18T04:19:32;31.92;;;17.55;;
59028;SDS011;45919;51.420;5.454;2022-12-18T04:20:34;30.40;;;16.73;;
59028;SDS011;45919;51.420;5.454;2022-12-18T04:21:35;30.23;;;16.30;;
59028;SDS011;45919;51.420;5.454;2022-12-18T04:22:37;33.08;;;15.57;;
59028;SDS011;45919;51.420;5.454;2022-12-18T04:23:38;32.90;;;16.40;;
59028;SDS011;45919;51.420;5.454;2022-12-18T04:24:40;30.88;;;15.75;;
59028;SDS011;45919;51.420;5.454;2022-12-18T04:25:42;32.70;;;16.88;;
59028;SDS011;45919;51.420;5.454;2022-12-18T04:26:43;32.53;;;16.88;;
59028;SDS011;45919;51.420;5.454;2022-12-18T04:27:45;30.90;;;17.25;;
59028;SDS011;45919;51.420;5.454;2022-12-18T04:28:46;34.97;;;16.63;;
59028;SDS011;45919;51.420;5.454;2022-12-18T04:29:48;31.20;;;15.70;;
59028;SDS011;45919;51.420;5.454;2022-12-18T04:30:49;29.02;;;16.60;;
59028;SDS011;45919;51.420;5.454;2022-12-18T04:31:51;33.72;;;17.75;;
59028;SDS011;45919;51.420;5.454;2022-12-18T04:32:53;30.38;;;16.17;;
59028;SDS011;45919;51.420;5.454;2022-12-18T04:33:54;32.03;;;16.85;;
59028;SDS011;45919;51.420;5.454;2022-12-18T04:34:56;28.85;;;16.45;;
59028;SDS011;45919;51.420;5.454;2022-12-18T04:35:57;29.98;;;15.80;;
59028;SDS011;45919;51.420;5.454;2022-12-18T04:36:59;28.98;;;15.57;;
59028;SDS011;45919;51.420;5.454;2022-12-18T04:38:01;33.80;;;16.30;;
59028;SDS011;45919;51.420;5.454;2022-12-18T04:39:02;33.38;;;16.90;;
59028;SDS011;45919;51.420;5.454;2022-12-18T04:40:04;29.95;;;16.00;;
59028;SDS011;45919;51.420;5.454;2022-12-18T04:41:06;33.22;;;16.02;;
59028;SDS011;45919;51.420;5.454;2022-12-18T04:42:08;30.08;;;16.48;;
59028;SDS011;45919;51.420;5.454;2022-12-18T04:43:09;29.80;;;15.75;;
59028;SDS011;45919;51.420;5.454;2022-12-18T04:44:11;31.88;;;17.05;;
59028;SDS011;45919;51.420;5.454;2022-12-18T04:45:13;29.92;;;16.75;;
59028;SDS011;45919;51.420;5.454;2022-12-18T04:46:14;32.67;;;16.42;;
59028;SDS011;45919;51.420;5.454;2022-12-18T04:47:16;31.20;;;16.30;;
59028;SDS011;45919;51.420;5.454;2022-12-18T04:48:18;35.22;;;16.10;;
59028;SDS011;45919;51.420;5.454;2022-12-18T04:49:21;30.13;;;15.85;;
59028;SDS011;45919;51.420;5.454;2022-12-18T04:50:23;29.10;;;15.10;;
59028;SDS011;45919;51.420;5.454;2022-12-18T04:51:24;32.85;;;16.60;;
59028;SDS011;45919;51.420;5.454;2022-12-18T04:52:26;31.42;;;16.15;;
59028;SDS011;45919;51.420;5.454;2022-12-18T04:53:28;33.22;;;16.77;;
59028;SDS011;45919;51.420;5.454;2022-12-18T04:54:30;31.95;;;16.63;;
59028;SDS011;45919;51.420;5.454;2022-12-18T04:55:31;29.25;;;15.02;;
59028;SDS011;45919;51.420;5.454;2022-12-18T04:56:33;29.60;;;15.43;;
59028;SDS011;45919;51.420;5.454;2022-12-18T04:57:34;30.42;;;15.70;;
59028;SDS011;45919;51.420;5.454;2022-12-18T04:58:36;28.67;;;15.05;;
59028;SDS011;45919;51.420;5.454;2022-12-18T04:59:40;30.80;;;16.23;;
59028;SDS011;45919;51.420;5.454;2022-12-18T05:00:41;30.67;;;16.17;;
59028;SDS011;45919;51.420;5.454;2022-12-18T05:01:43;30.20;;;16.60;;
59028;SDS011;45919;51.420;5.454;2022-12-18T05:02:44;30.20;;;17.17;;
59028;SDS011;45919;51.420;5.454;2022-12-18T05:03:46;30.10;;;14.98;;
59028;SDS011;45919;51.420;5.454;2022-12-18T05:04:48;30.70;;;15.68;;
59028;SDS011;45919;51.420;5.454;2022-12-18T05:05:50;25.65;;;14.63;;
59028;SDS011;45919;51.420;5.454;2022-12-18T05:06:52;28.88;;;15.15;;
59028;SDS011;45919;51.420;5.454;2022-12-18T05:07:54;30.65;;;14.82;;
59028;SDS011;45919;51.420;5.454;2022-12-18T05:08:55;28.67;;;15.32;;
59028;SDS011;45919;51.420;5.454;2022-12-18T05:09:57;26.55;;;14.77;;
59028;SDS011;45919;51.420;5.454;2022-12-18T05:11:02;30.75;;;15.98;;
59028;SDS011;45919;51.420;5.454;2022-12-18T05:12:06;27.02;;;14.65;;
59028;SDS011;45919;51.420;5.454;2022-12-18T05:13:08;34.72;;;16.25;;
59028;SDS011;45919;51.420;5.454;2022-12-18T05:14:09;30.35;;;15.10;;
59028;SDS011;45919;51.420;5.454;2022-12-18T05:15:12;31.13;;;15.43;;
59028;SDS011;45919;51.420;5.454;2022-12-18T05:16:13;25.58;;;15.48;;
59028;SDS011;45919;51.420;5.454;2022-12-18T05:17:15;31.15;;;15.63;;
59028;SDS011;45919;51.420;5.454;2022-12-18T05:18:17;28.65;;;15.20;;
59028;SDS011;45919;51.420;5.454;2022-12-18T05:19:19;28.20;;;14.63;;
59028;SDS011;45919;51.420;5.454;2022-12-18T05:20:20;28.27;;;14.27;;
59028;SDS011;45919;51.420;5.454;2022-12-18T05:21:22;29.80;;;15.13;;
59028;SDS011;45919;51.420;5.454;2022-12-18T05:22:24;27.02;;;14.32;;
59028;SDS011;45919;51.420;5.454;2022-12-18T05:23:27;27.60;;;15.68;;
59028;SDS011;45919;51.420;5.454;2022-12-18T05:24:29;30.90;;;15.27;;
59028;SDS011;45919;51.420;5.454;2022-12-18T05:25:30;30.08;;;15.35;;
59028;SDS011;45919;51.420;5.454;2022-12-18T05:26:32;29.92;;;14.23;;
59028;SDS011;45919;51.420;5.454;2022-12-18T05:27:34;27.60;;;15.73;;
59028;SDS011;45919;51.420;5.454;2022-12-18T05:28:35;26.50;;;14.52;;
59028;SDS011;45919;51.420;5.454;2022-12-18T05:29:37;31.35;;;15.93;;
59028;SDS011;45919;51.420;5.454;2022-12-18T05:30:39;29.33;;;15.82;;
59028;SDS011;45919;51.420;5.454;2022-12-18T05:31:43;26.75;;;14.43;;
59028;SDS011;45919;51.420;5.454;2022-12-18T05:32:45;29.05;;;14.82;;
59028;SDS011;45919;51.420;5.454;2022-12-18T05:33:47;28.27;;;14.48;;
59028;SDS011;45919;51.420;5.454;2022-12-18T05:34:48;27.45;;;13.85;;
59028;SDS011;45919;51.420;5.454;2022-12-18T05:35:53;32.53;;;15.88;;
59028;SDS011;45919;51.420;5.454;2022-12-18T05:36:55;27.42;;;14.40;;
59028;SDS011;45919;51.420;5.454;2022-12-18T05:37:57;28.95;;;14.60;;
59028;SDS011;45919;51.420;5.454;2022-12-18T05:38:58;24.83;;;14.95;;
59028;SDS011;45919;51.420;5.454;2022-12-18T05:40:02;28.35;;;14.68;;
59028;SDS011;45919;51.420;5.454;2022-12-18T05:41:05;25.95;;;14.38;;
59028;SDS011;45919;51.420;5.454;2022-12-18T05:42:08;27.75;;;14.82;;
59028;SDS011;45919;51.420;5.454;2022-12-18T05:43:09;32.53;;;14.43;;
59028;SDS011;45919;51.420;5.454;2022-12-18T05:44:13;28.80;;;14.70;;
59028;SDS011;45919;51.420;5.454;2022-12-18T05:45:15;27.27;;;13.63;;
59028;SDS011;45919;51.420;5.454;2022-12-18T05:46:16;27.38;;;13.73;;
59028;SDS011;45919;51.420;5.454;2022-12-18T05:47:19;24.50;;;13.65;;
59028;SDS011;45919;51.420;5.454;2022-12-18T05:48:20;28.33;;;15.38;;
59028;SDS011;45919;51.420;5.454;2022-12-18T05:49:22;29.17;;;14.95;;
59028;SDS011;45919;51.420;5.454;2022-12-18T05:50:23;26.38;;;14.95;;
59028;SDS011;45919;51.420;5.454;2022-12-18T05:51:25;28.17;;;14.38;;
59028;SDS011;45919;51.420;5.454;2022-12-18T05:52:27;31.73;;;15.00;;
59028;SDS011;45919;51.420;5.454;2022-12-18T05:53:28;27.75;;;15.02;;
59028;SDS011;45919;51.420;5.454;2022-12-18T05:54:30;26.50;;;14.52;;
59028;SDS011;45919;51.420;5.454;2022-12-18T05:55:33;30.48;;;14.27;;
59028;SDS011;45919;51.420;5.454;2022-12-18T05:56:35;26.17;;;14.27;;
59028;SDS011;45919;51.420;5.454;2022-12-18T05:57:37;25.92;;;13.57;;
59028;SDS011;45919;51.420;5.454;2022-12-18T05:58:38;30.48;;;14.70;;
59028;SDS011;45919;51.420;5.454;2022-12-18T05:59:40;25.15;;;13.90;;
59028;SDS011;45919;51.420;5.454;2022-12-18T06:00:43;28.35;;;14.70;;
59028;SDS011;45919;51.420;5.454;2022-12-18T06:01:45;27.80;;;14.25;;
59028;SDS011;45919;51.420;5.454;2022-12-18T06:02:47;28.80;;;14.85;;
59028;SDS011;45919;51.420;5.454;2022-12-18T06:03:49;22.33;;;13.80;;
59028;SDS011;45919;51.420;5.454;2022-12-18T06:04:51;25.27;;;14.10;;
59028;SDS011;45919;51.420;5.454;2022-12-18T06:05:52;25.15;;;14.00;;
59028;SDS011;45919;51.420;5.454;2022-12-18T06:06:54;26.20;;;14.13;;
59028;SDS011;45919;51.420;5.454;2022-12-18T06:07:55;27.63;;;13.75;;
59028;SDS011;45919;51.420;5.454;2022-12-18T06:08:57;25.95;;;14.23;;
59028;SDS011;45919;51.420;5.454;2022-12-18T06:09:59;32.00;;;14.20;;
59028;SDS011;45919;51.420;5.454;2022-12-18T06:11:00;28.17;;;14.50;;
59028;SDS011;45919;51.420;5.454;2022-12-18T06:12:02;28.00;;;14.23;;
59028;SDS011;45919;51.420;5.454;2022-12-18T06:13:04;27.88;;;14.93;;
59028;SDS011;45919;51.420;5.454;2022-12-18T06:14:06;26.70;;;14.55;;
59028;SDS011;45919;51.420;5.454;2022-12-18T06:15:07;33.67;;;14.45;;
59028;SDS011;45919;51.420;5.454;2022-12-18T06:16:09;26.98;;;14.05;;
59028;SDS011;45919;51.420;5.454;2022-12-18T06:17:11;28.98;;;14.50;;
59028;SDS011;45919;51.420;5.454;2022-12-18T06:18:13;24.15;;;14.45;;
59028;SDS011;45919;51.420;5.454;2022-12-18T06:19:15;28.02;;;14.68;;
59028;SDS011;45919;51.420;5.454;2022-12-18T06:20:17;28.80;;;14.98;;
59028;SDS011;45919;51.420;5.454;2022-12-18T06:21:19;27.42;;;14.15;;
59028;SDS011;45919;51.420;5.454;2022-12-18T06:22:20;23.65;;;14.20;;
59028;SDS011;45919;51.420;5.454;2022-12-18T06:23:22;30.75;;;14.57;;
59028;SDS011;45919;51.420;5.454;2022-12-18T06:24:24;24.95;;;14.65;;
59028;SDS011;45919;51.420;5.454;2022-12-18T06:25:25;29.27;;;13.85;;
59028;SDS011;45919;51.420;5.454;2022-12-18T06:26:27;27.55;;;14.50;;
59028;SDS011;45919;51.420;5.454;2022-12-18T06:27:29;25.58;;;13.93;;
59028;SDS011;45919;51.420;5.454;2022-12-18T06:28:30;34.13;;;14.68;;
59028;SDS011;45919;51.420;5.454;2022-12-18T06:29:32;26.42;;;14.57;;
59028;SDS011;45919;51.420;5.454;2022-12-18T06:30:34;33.05;;;14.75;;
59028;SDS011;45919;51.420;5.454;2022-12-18T06:31:35;28.65;;;14.85;;
59028;SDS011;45919;51.420;5.454;2022-12-18T06:32:37;28.50;;;14.52;;
59028;SDS011;45919;51.420;5.454;2022-12-18T06:33:38;30.08;;;14.55;;
59028;SDS011;45919;51.420;5.454;2022-12-18T06:34:40;24.63;;;14.00;;
59028;SDS011;45919;51.420;5.454;2022-12-18T06:35:42;33.60;;;15.23;;
59028;SDS011;45919;51.420;5.454;2022-12-18T06:36:43;27.48;;;15.00;;
59028;SDS011;45919;51.420;5.454;2022-12-18T06:37:45;31.58;;;14.95;;
59028;SDS011;45919;51.420;5.454;2022-12-18T06:38:47;30.23;;;15.32;;
59028;SDS011;45919;51.420;5.454;2022-12-18T06:39:48;30.48;;;15.30;;
59028;SDS011;45919;51.420;5.454;2022-12-18T06:40:50;26.48;;;13.85;;
59028;SDS011;45919;51.420;5.454;2022-12-18T06:41:51;33.92;;;16.52;;